Time;durP1;ratioP1;P1;durP2;ratioP2;P2;SDS_P1;SDS_P2;PMS_P1;PMS_P2;Temp;Humidity;BMP_temperature;BMP_pressure;BME280_temperature;BME280_humidity;BME280_pressure;Samples;Min_cycle;Max_cycle;Signal;HPM_P1;HPM_P2
2022/08/02 00:02:13;;;;;;;8.48;5.60;;;17.40;99.90;;;17.83;100.00;98971.50;5085252;27;121531;-76
2022/08/02 00:04:41;;;;;;;7.85;5.68;;;17.40;99.90;;;17.89;100.00;98975.53;5103613;27;130343;-75
2022/08/02 00:07:09;;;;;;;10.65;5.30;;;17.50;99.90;;;18.01;100.00;98965.47;5088288;27;128354;-77
2022/08/02 00:09:38;;;;;;;9.20;6.10;;;17.40;99.90;;;17.91;100.00;98978.69;5103814;27;120087;-75
2022/08/02 00:12:08;;;;;;;7.68;5.32;;;17.50;99.90;;;17.99;100.00;98976.03;5103806;27;119548;-74
2022/08/02 00:14:39;;;;;;;9.88;6.40;;;17.40;99.90;;;18.06;100.00;98976.13;5103236;27;130307;-76
2022/08/02 00:17:07;;;;;;;9.43;5.97;;;17.40;99.90;;;18.11;100.00;98979.31;5103862;27;129816;-75
2022/08/02 00:19:39;;;;;;;8.40;6.40;;;17.50;99.90;;;18.18;100.00;98973.13;5103885;27;119919;-75
2022/08/02 00:22:11;;;;;;;10.43;7.15;;;17.50;99.90;;;18.11;100.00;98973.06;5085551;27;119596;-76
2022/08/02 00:24:44;;;;;;;11.15;7.35;;;17.40;99.90;;;17.79;100.00;98976.97;5084433;27;130555;-74
2022/08/02 00:27:13;;;;;;;7.85;5.90;;;17.30;99.90;;;17.82;100.00;98969.16;5103556;27;129555;-75
2022/08/02 00:29:49;;;;;;;8.43;6.47;;;17.40;99.90;;;17.90;100.00;98982.63;5087837;27;119484;-75
2022/08/02 00:32:26;;;;;;;9.40;6.65;;;17.40;99.90;;;17.90;100.00;98979.88;5103979;27;119320;-76
2022/08/02 00:34:56;;;;;;;10.35;6.53;;;17.30;99.90;;;17.72;100.00;98978.81;5103469;27;129700;-75
2022/08/02 00:37:26;;;;;;;8.38;6.38;;;17.30;99.90;;;17.77;100.00;98978.50;5084872;27;129429;-74
2022/08/02 00:39:57;;;;;;;8.57;6.20;;;17.30;99.90;;;17.88;100.00;98973.13;5089524;27;118680;-74
2022/08/02 00:42:26;;;;;;;10.90;7.28;;;17.40;99.90;;;17.95;100.00;98973.25;5104215;27;118984;-76
2022/08/02 00:44:58;;;;;;;10.43;6.53;;;17.30;99.90;;;17.94;100.00;98972.47;5103018;27;130485;-75
2022/08/02 00:47:26;;;;;;;8.82;6.43;;;17.30;99.90;;;17.92;100.00;98957.50;5102916;27;129614;-75
2022/08/02 00:49:55;;;;;;;9.63;6.70;;;17.30;99.90;;;17.91;100.00;98956.72;5101916;27;121779;-74
2022/08/02 00:52:24;;;;;;;9.55;6.88;;;17.30;99.90;;;17.82;100.00;98958.16;5103315;27;121683;-76
2022/08/02 00:54:52;;;;;;;10.52;6.63;;;17.30;99.90;;;17.73;100.00;98961.19;5104204;27;129929;-76
2022/08/02 00:57:22;;;;;;;10.55;6.72;;;17.20;99.90;;;17.63;100.00;98961.84;5102537;27;129868;-79
2022/08/02 00:59:50;;;;;;;8.65;6.50;;;17.20;99.90;;;17.54;100.00;98971.13;5103075;27;119435;-76
2022/08/02 01:02:20;;;;;;;10.73;7.68;;;17.20;99.90;;;17.57;100.00;98967.63;5070608;27;119840;-75
2022/08/02 01:04:49;;;;;;;9.38;6.65;;;17.10;99.90;;;17.48;100.00;98956.16;5102534;27;131110;-76
2022/08/02 01:07:18;;;;;;;9.82;7.22;;;17.10;99.90;;;17.48;100.00;98961.63;5102846;27;130479;-74
2022/08/02 01:09:46;;;;;;;10.05;6.78;;;17.10;99.90;;;17.59;100.00;98957.09;5084608;27;119552;-75
2022/08/02 01:12:15;;;;;;;9.68;6.90;;;17.10;99.90;;;17.75;100.00;98969.84;5103195;27;119359;-74
2022/08/02 01:14:47;;;;;;;9.75;6.95;;;17.20;99.90;;;17.79;100.00;98965.19;5101539;27;131795;-75
2022/08/02 01:17:27;;;;;;;10.70;7.20;;;17.20;99.90;;;17.82;100.00;98956.19;5102449;27;129803;-76
2022/08/02 01:20:12;;;;;;;9.57;6.68;;;17.20;99.90;;;17.82;100.00;98958.94;5084174;27;120641;-75
2022/08/02 01:23:09;;;;;;;12.77;7.10;;;17.10;99.90;;;17.83;100.00;98955.03;5102897;27;119594;-75
2022/08/02 01:26:09;;;;;;;11.20;7.32;;;17.10;99.90;;;17.81;100.00;98968.34;5102144;27;129900;-75
2022/08/02 01:28:49;;;;;;;12.13;6.95;;;17.10;99.90;;;17.85;100.00;98966.44;5102509;27;129399;-76
2022/08/02 01:31:27;;;;;;;12.57;6.57;;;17.20;99.90;;;17.86;100.00;98965.28;5070331;27;119260;-77
2022/08/02 01:34:04;;;;;;;8.20;6.32;;;17.20;99.90;;;17.85;100.00;98963.69;5087812;27;118530;-75
2022/08/02 01:36:38;;;;;;;11.38;7.00;;;17.10;99.90;;;17.71;100.00;98963.50;5102328;27;130781;-75
2022/08/02 01:39:13;;;;;;;9.95;7.18;;;17.10;99.90;;;17.67;100.00;98966.22;5102171;27;129359;-78
2022/08/02 01:41:42;;;;;;;17.55;6.95;;;17.10;99.90;;;17.68;100.00;98973.28;5101244;27;121903;-76
2022/08/02 01:44:15;;;;;;;9.90;6.97;;;17.10;99.90;;;17.64;100.00;98969.72;5087063;27;120726;-75
2022/08/02 01:46:46;;;;;;;8.95;6.72;;;17.10;99.90;;;17.56;100.00;98973.50;5101781;27;129826;-77
2022/08/02 01:49:20;;;;;;;10.68;6.95;;;17.00;99.90;;;17.45;100.00;98967.84;5102248;27;129676;-76
2022/08/02 01:54:42;;;;;;;12.77;7.57;;;16.90;99.90;;;17.18;100.00;98965.13;5103639;27;119526;-75
2022/08/02 01:57:13;;;;;;;11.70;7.47;;;16.90;1.00;;;17.23;100.00;98967.56;5086941;27;129075;-75
2022/08/02 01:59:45;;;;;;;11.18;6.93;;;16.90;1.00;;;17.35;100.00;98971.25;5086992;27;129426;-75
2022/08/02 02:02:16;;;;;;;11.88;6.90;;;16.90;1.00;;;17.21;100.00;98974.59;5087123;27;118550;-75
2022/08/02 02:04:46;;;;;;;12.77;7.55;;;16.90;1.00;;;17.08;100.00;98976.75;5086331;27;119133;-77
2022/08/02 02:07:16;;;;;;;9.57;6.90;;;16.80;1.00;;;17.05;100.00;98972.00;5081882;27;130424;-77
2022/08/02 02:09:46;;;;;;;12.68;7.55;;;16.80;1.00;;;17.13;100.00;98978.38;5086603;27;128357;-76
2022/08/02 02:12:17;;;;;;;13.55;7.78;;;16.80;1.00;;;17.10;100.00;98974.41;5103839;27;119617;-76
2022/08/02 02:14:47;;;;;;;13.35;8.35;;;16.80;1.00;;;17.02;100.00;98976.25;5071545;27;118769;-78
2022/08/02 02:17:17;;;;;;;13.20;8.43;;;16.80;1.00;;;17.12;100.00;98974.81;5101420;27;130934;-76
2022/08/02 02:19:47;;;;;;;13.90;8.18;;;16.70;1.00;;;17.17;100.00;98960.00;5086574;27;128560;-76
2022/08/02 02:22:16;;;;;;;12.57;8.80;;;16.80;1.00;;;17.10;100.00;98974.41;5102154;27;120030;-75
2022/08/02 02:24:44;;;;;;;12.85;7.68;;;16.70;1.00;;;17.11;100.00;98981.50;5102191;27;119476;-78
2022/08/02 02:27:17;;;;;;;12.45;8.57;;;16.70;1.00;;;17.05;100.00;98989.22;5101323;27;129770;-79
2022/08/02 02:29:51;;;;;;;13.10;8.38;;;16.70;1.00;;;17.00;100.00;98984.06;5086144;27;128629;-77
2022/08/02 02:32:22;;;;;;;11.32;8.02;;;16.70;1.00;;;16.99;100.00;98984.44;5100484;27;122605;-75
2022/08/02 02:34:53;;;;;;;12.52;8.48;;;16.70;1.00;;;17.06;100.00;98990.00;5101544;27;122161;-77
2022/08/02 02:37:26;;;;;;;12.98;8.65;;;16.70;1.00;;;17.13;100.00;98979.16;5101538;27;129981;-75
2022/08/02 02:39:57;;;;;;;12.02;8.77;;;16.70;1.00;;;17.06;100.00;98990.81;5085902;27;129947;-75
2022/08/02 02:42:30;;;;;;;11.23;8.48;;;16.70;1.00;;;17.06;100.00;98990.00;5101544;27;120019;-77
2022/08/02 02:45:03;;;;;;;12.57;7.88;;;16.70;1.00;;;16.93;100.00;98991.38;5101780;27;119456;-76
2022/08/02 02:47:34;;;;;;;10.77;8.00;;;16.70;1.00;;;16.87;100.00;98988.91;5085858;27;129535;-75
2022/08/02 02:50:04;;;;;;;12.90;8.63;;;16.70;1.00;;;16.95;100.00;98989.03;5086188;27;129568;-75
2022/08/02 02:52:35;;;;;;;14.13;8.85;;;16.70;1.00;;;17.02;100.00;98991.91;5101513;27;119583;-75
2022/08/02 02:55:05;;;;;;;12.57;9.05;;;16.70;1.00;;;17.10;100.00;98988.13;5103491;27;119276;-76
2022/08/02 02:57:34;;;;;;;15.40;8.38;;;16.70;1.00;;;17.15;100.00;98992.50;5099637;27;130271;-75
2022/08/02 03:00:07;;;;;;;12.85;8.93;;;16.70;1.00;;;17.16;100.00;98992.13;5100996;27;129632;-78
2022/08/02 03:02:38;;;;;;;12.20;8.48;;;16.70;1.00;;;17.16;100.00;98983.91;5086101;27;118760;-77
2022/08/02 03:05:08;;;;;;;14.88;8.50;;;16.80;1.00;;;17.14;100.00;98991.72;5101403;27;121143;-74
2022/08/02 03:07:38;;;;;;;12.40;8.45;;;16.70;1.00;;;17.21;100.00;98997.28;5100984;27;130262;-75
2022/08/02 03:10:08;;;;;;;13.50;8.60;;;16.80;1.00;;;17.19;100.00;98999.63;5100951;27;129534;-77
2022/08/02 03:12:37;;;;;;;12.57;9.23;;;16.80;1.00;;;17.17;100.00;98999.22;5085394;27;120006;-77
2022/08/02 03:15:12;;;;;;;12.13;8.82;;;16.80;1.00;;;17.13;100.00;99001.09;5086313;27;119992;-77
2022/08/02 03:17:42;;;;;;;14.25;9.35;;;16.80;1.00;;;17.11;100.00;99000.69;5103043;27;129800;-76
2022/08/02 03:20:14;;;;;;;13.63;9.05;;;16.80;1.00;;;17.08;100.00;98998.69;5105041;27;130072;-75
2022/08/02 03:22:43;;;;;;;16.98;8.80;;;16.80;1.00;;;17.12;100.00;99002.25;5086647;27;122186;-76
2022/08/02 03:25:13;;;;;;;13.73;8.98;;;16.80;1.00;;;17.02;100.00;99011.09;5090658;27;121410;-76
2022/08/02 03:27:42;;;;;;;14.98;9.25;;;16.80;1.00;;;17.03;100.00;99007.19;5086010;27;129877;-77
2022/08/02 03:30:14;;;;;;;15.43;8.75;;;16.80;1.00;;;17.15;100.00;99020.69;5085956;27;129818;-78
2022/08/02 03:32:47;;;;;;;13.00;8.93;;;16.80;1.00;;;17.05;100.00;99022.13;5104927;27;120170;-76
2022/08/02 03:35:18;;;;;;;11.95;8.68;;;16.80;1.00;;;17.07;100.00;99019.00;5104883;27;119925;-76
2022/08/02 03:37:48;;;;;;;12.23;8.75;;;16.80;1.00;;;17.20;100.00;99012.19;5103877;27;130473;-76
2022/08/02 03:40:18;;;;;;;12.18;9.35;;;16.80;1.00;;;17.17;100.00;99012.91;5086262;27;129616;-76
2022/08/02 03:42:47;;;;;;;14.18;9.05;;;16.80;1.00;;;17.23;100.00;99008.72;5104672;27;120861;-75
2022/08/02 03:45:18;;;;;;;13.57;9.43;;;16.80;1.00;;;17.19;100.00;99016.06;5085632;27;119489;-78
2022/08/02 03:47:47;;;;;;;17.30;10.38;;;16.80;1.00;;;17.19;100.00;99018.03;5102791;27;130304;-74
2022/08/02 03:50:17;;;;;;;14.27;9.63;;;16.80;1.00;;;17.15;100.00;99014.44;5103805;27;129497;-77
2022/08/02 03:52:47;;;;;;;10.43;8.10;;;16.80;1.00;;;17.04;100.00;99006.03;5104206;27;119787;-77
2022/08/02 03:55:16;;;;;;;13.18;9.20;;;16.80;1.00;;;16.95;100.00;99013.72;5083087;27;119253;-74
2022/08/02 03:57:44;;;;;;;11.27;8.77;;;16.80;1.00;;;16.95;100.00;99013.72;5063738;27;130978;-76
2022/08/02 04:00:21;;;;;;;11.15;8.55;;;16.80;1.00;;;17.07;100.00;99013.53;5081953;27;129962;-76
2022/08/02 04:02:50;;;;;;;14.60;9.50;;;16.80;1.00;;;17.27;100.00;99013.47;5082197;27;119782;-74
2022/08/02 04:05:19;;;;;;;11.82;8.90;;;16.90;1.00;;;17.48;100.00;99016.50;5083027;27;119522;-74
2022/08/02 04:07:49;;;;;;;14.75;8.93;;;17.00;1.00;;;17.61;100.00;99017.88;5081975;27;130173;-75
2022/08/02 04:10:18;;;;;;;11.30;8.77;;;17.10;1.00;;;17.72;100.00;99025.47;5082002;27;130451;-75
2022/08/02 04:12:47;;;;;;;12.60;8.90;;;17.10;1.00;;;17.43;100.00;99020.34;5080418;27;121987;-79
2022/08/02 04:15:16;;;;;;;12.52;8.57;;;17.00;1.00;;;17.51;100.00;99015.75;5045531;27;121620;-76
2022/08/02 04:17:55;;;;;;;12.07;7.68;;;17.00;1.00;;;17.50;100.00;99022.44;5062503;27;130998;-76
2022/08/02 04:20:28;;;;;;;12.25;8.55;;;17.00;99.90;;;17.60;100.00;99023.72;5047521;27;129949;-74
2022/08/02 04:23:04;;;;;;;12.07;8.40;;;17.10;99.90;;;17.28;100.00;99028.72;5047483;27;118783;-81
2022/08/02 04:25:34;;;;;;;12.13;8.73;;;17.00;99.90;;;17.36;100.00;99030.44;5062470;27;119548;-75
2022/08/02 04:28:03;;;;;;;12.93;8.80;;;17.00;99.90;;;17.36;100.00;99024.97;5061233;27;129972;-75
2022/08/02 04:30:33;;;;;;;11.65;8.00;;;17.00;99.90;;;17.39;100.00;99029.69;5062207;27;129963;-76
2022/08/02 04:33:03;;;;;;;12.60;9.13;;;17.10;99.90;;;17.59;100.00;99039.41;5062261;27;119745;-74
2022/08/02 04:35:32;;;;;;;12.63;7.97;;;17.20;99.90;;;17.77;100.00;99038.88;5062227;27;119091;-77
2022/08/02 04:38:01;;;;;;;11.98;7.55;;;17.20;99.90;;;17.70;100.00;99039.56;5060903;27;130060;-75
2022/08/02 04:40:30;;;;;;;10.98;7.50;;;17.20;99.90;;;17.71;100.00;99043.09;5061987;27;129654;-74
2022/08/02 04:42:59;;;;;;;10.30;7.43;;;17.20;99.90;;;17.78;100.00;99048.69;5061974;27;119510;-74
2022/08/02 04:45:29;;;;;;;12.35;8.10;;;17.20;99.90;;;17.82;100.00;99041.28;5047051;27;118756;-75
2022/08/02 04:47:58;;;;;;;9.75;7.50;;;17.20;99.90;;;17.90;100.00;99047.69;5061728;27;130019;-76
2022/08/02 04:50:28;;;;;;;10.05;7.60;;;17.30;99.90;;;17.80;100.00;99046.34;5046630;27;130219;-79
2022/08/02 04:52:58;;;;;;;10.38;7.40;;;17.20;99.90;;;17.69;100.00;99053.66;5062257;27;119381;-74
2022/08/02 04:55:28;;;;;;;11.20;7.63;;;17.20;99.90;;;17.71;100.00;99045.84;5065120;27;119230;-75
2022/08/02 04:57:58;;;;;;;10.35;7.35;;;17.20;99.90;;;17.68;100.00;99057.56;5061667;27;129941;-75
2022/08/02 05:00:28;;;;;;;9.95;6.47;;;17.20;99.90;;;17.48;100.00;99057.63;5046744;27;128217;-75
2022/08/02 05:02:58;;;;;;;8.32;6.68;;;17.20;99.90;;;17.60;100.00;99059.41;5045259;27;121880;-76
2022/08/02 05:05:28;;;;;;;8.15;6.70;;;17.20;99.90;;;17.63;100.00;99060.63;5029968;27;120676;-76
2022/08/02 05:07:57;;;;;;;8.98;7.18;;;17.20;99.90;;;17.52;100.00;99063.97;5043353;27;129151;-79
2022/08/02 05:10:26;;;;;;;9.27;6.22;;;17.30;99.90;;;17.67;100.00;99065.00;5044065;27;130542;-79
2022/08/02 05:12:54;;;;;;;9.25;6.93;;;17.30;99.90;;;17.83;100.00;99070.31;5058645;27;119836;-78
2022/08/02 05:15:23;;;;;;;8.75;6.82;;;17.40;99.90;;;17.95;100.00;99061.88;5030108;27;118870;-76
2022/08/02 05:17:51;;;;;;;9.50;6.55;;;17.50;99.90;;;17.87;100.00;99070.34;5062236;27;130058;-78
2022/08/02 05:20:20;;;;;;;9.02;6.35;;;17.40;99.90;;;18.01;100.00;99075.28;5046710;27;128542;-78
2022/08/02 05:22:50;;;;;;;9.15;6.53;;;17.50;99.90;;;18.00;100.00;99087.41;5060903;27;119940;-76
2022/08/02 05:25:18;;;;;;;9.82;6.30;;;17.50;99.90;;;18.12;100.00;99081.69;5061471;27;119478;-77
2022/08/02 05:27:46;;;;;;;8.52;6.55;;;17.60;99.90;;;18.03;100.00;99078.44;5060224;27;130240;-83
2022/08/02 05:30:15;;;;;;;8.05;5.80;;;17.50;99.90;;;18.09;100.00;99079.69;5061809;27;129492;-80
2022/08/02 05:32:45;;;;;;;9.85;6.35;;;17.60;99.90;;;18.38;100.00;99083.59;5046762;27;118738;-73
2022/08/02 05:35:18;;;;;;;11.07;7.15;;;17.60;99.90;;;18.46;100.00;99092.72;5061953;27;119498;-78
2022/08/02 05:37:47;;;;;;;9.05;6.38;;;17.70;99.90;;;18.30;100.00;99092.94;5029968;27;129806;-77
2022/08/02 05:40:18;;;;;;;10.20;7.30;;;17.60;99.90;;;18.24;100.00;99095.19;5061273;27;130295;-78
2022/08/02 05:42:47;;;;;;;8.15;6.40;;;17.60;99.90;;;17.96;100.00;99096.41;5061744;27;119522;-76
2022/08/02 05:45:16;;;;;;;7.78;6.25;;;17.50;99.90;;;18.17;100.00;99095.13;5046902;27;119438;-76
2022/08/02 05:47:45;;;;;;;7.85;6.20;;;17.60;99.90;;;18.09;100.00;99099.72;5064631;27;129847;-82
2022/08/02 05:50:14;;;;;;;9.23;6.53;;;17.60;99.90;;;18.01;100.00;99102.75;5071931;27;130158;-78
2022/08/02 05:52:50;;;;;;;10.32;6.57;;;17.50;99.90;;;18.08;100.00;99109.13;5062517;27;122114;-79
2022/08/02 05:55:28;;;;;;;10.88;6.78;;;17.60;99.90;;;18.16;100.00;99109.22;5063678;27;121981;-79
2022/08/02 05:58:06;;;;;;;8.30;6.28;;;17.60;99.90;;;18.21;100.00;99106.94;5045740;27;127947;-77
2022/08/02 06:00:37;;;;;;;8.38;6.22;;;17.60;99.90;;;18.52;100.00;99113.19;5045626;27;129194;-78
2022/08/02 06:03:24;;;;;;;8.75;6.40;;;17.90;99.90;;;18.66;100.00;99116.09;5061073;27;119674;-78
2022/08/02 06:06:03;;;;;;;8.70;5.75;;;17.90;99.90;;;18.78;100.00;99108.78;5045993;27;118451;-77
2022/08/02 06:08:37;;;;;;;7.97;5.90;;;18.00;99.90;;;18.92;100.00;99128.22;5059942;27;129549;-77
2022/08/02 06:11:10;;;;;;;9.23;5.32;;;18.10;99.90;;;18.86;100.00;99127.75;5046114;27;129136;-77
2022/08/02 06:13:40;;;;;;;9.13;5.93;;;18.00;99.90;;;18.55;100.00;99123.44;5061377;27;119673;-82
2022/08/02 06:16:09;;;;;;;7.82;5.25;;;17.80;99.90;;;18.45;100.00;99122.16;5061290;27;119556;-83
2022/08/02 06:18:40;;;;;;;8.73;6.30;;;17.90;99.90;;;18.47;100.00;99124.53;5059785;27;130075;-77
2022/08/02 06:21:10;;;;;;;9.52;5.20;;;17.90;99.90;;;18.45;100.00;99132.34;5061165;27;129657;-78
2022/08/02 06:23:42;;;;;;;9.15;5.03;;;17.90;99.90;;;18.71;100.00;99122.44;5061041;27;119229;-77
2022/08/02 06:26:13;;;;;;;7.40;5.10;;;18.10;99.90;;;18.92;100.00;99133.72;5045633;27;118978;-77
2022/08/02 06:28:43;;;;;;;7.65;5.03;;;18.20;99.90;;;19.01;100.00;99125.16;5058413;27;129921;-81
2022/08/02 06:31:14;;;;;;;9.05;5.75;;;18.20;99.90;;;18.92;100.00;99133.72;5060208;27;129374;-83
2022/08/02 06:33:43;;;;;;;6.55;4.63;;;18.10;99.90;;;18.77;100.00;99131.94;5060902;27;119438;-81
2022/08/02 06:36:18;;;;;;;6.68;4.50;;;18.00;99.90;;;18.67;100.00;99131.44;5045888;27;119199;-82
2022/08/02 06:38:55;;;;;;;8.98;5.47;;;18.00;99.90;;;18.76;100.00;99124.84;5060110;27;130251;-77
2022/08/02 06:41:26;;;;;;;6.13;4.40;;;18.10;99.90;;;18.71;100.00;99122.44;5060510;27;129548;-76
2022/08/02 06:44:00;;;;;;;8.82;5.20;;;18.10;99.90;;;18.78;100.00;99128.03;5068526;27;122651;-74
2022/08/02 06:46:29;;;;;;;10.02;5.15;;;18.10;99.90;;;18.81;100.00;99121.78;5041090;27;122112;-77
2022/08/02 06:48:57;;;;;;;7.22;4.22;;;18.10;99.90;;;18.98;100.00;99125.91;5063265;27;130386;-79
2022/08/02 06:51:27;;;;;;;6.40;4.28;;;18.30;99.90;;;18.86;100.00;99126.97;5059482;27;129432;-75
2022/08/02 06:53:55;;;;;;;9.95;5.97;;;18.10;99.90;;;19.00;100.00;99131.84;5065916;27;118710;-77
2022/08/02 06:56:25;;;;;;;7.30;4.20;;;18.30;99.90;;;19.31;100.00;99127.81;5048814;27;118846;-78
2022/08/02 06:58:54;;;;;;;9.55;4.28;;;18.40;99.90;;;19.36;100.00;99130.19;5063093;27;129846;-78
2022/08/02 07:01:23;;;;;;;7.55;4.68;;;18.50;99.90;;;19.24;100.00;99133.22;5073174;27;129766;-76
2022/08/02 07:03:51;;;;;;;7.47;4.03;;;18.40;99.90;;;19.38;100.00;99133.38;5083870;27;119233;-76
2022/08/02 07:06:20;;;;;;;7.57;3.60;;;18.60;99.90;;;19.52;100.00;99143.69;5065386;27;119587;-80
2022/08/02 07:08:49;;;;;;;5.80;3.72;;;18.60;99.90;;;19.48;100.00;99136.59;5082715;27;130525;-79
2022/08/02 07:11:18;;;;;;;7.60;4.32;;;18.60;99.90;;;19.66;100.00;99137.50;5064704;27;130264;-79
2022/08/02 07:13:47;;;;;;;7.07;4.80;;;18.70;99.90;;;19.70;100.00;99138.34;5084143;27;119897;-80
2022/08/02 07:16:16;;;;;;;8.73;4.80;;;18.80;99.90;;;19.59;100.00;99142.97;5084003;27;119604;-83
2022/08/02 07:18:44;;;;;;;6.93;4.75;;;18.60;99.90;;;19.73;100.00;99137.59;5084184;27;130419;-81
2022/08/02 07:21:13;;;;;;;7.13;3.33;;;18.80;99.90;;;20.13;97.11;99131.56;5083282;27;129639;-77
2022/08/02 07:23:41;;;;;;;6.35;3.15;;;19.00;99.90;;;20.36;94.41;99137.59;5067660;27;119192;-79
2022/08/02 07:26:10;;;;;;;4.93;3.13;;;19.20;99.90;;;20.65;92.55;99129.47;5074604;27;119370;-82
2022/08/02 07:28:38;;;;;;;5.90;3.38;;;19.40;99.90;;;20.65;91.13;99135.78;5067502;27;128892;-80
2022/08/02 07:31:08;;;;;;;6.80;3.58;;;19.30;99.90;;;20.61;91.93;99136.91;5082438;27;129743;-80
2022/08/02 07:33:37;;;;;;;7.20;3.30;;;19.20;99.90;;;20.71;92.51;99138.97;5081466;27;121627;-78
2022/08/02 07:36:06;;;;;;;7.03;3.30;;;19.40;99.90;;;20.75;89.91;99145.25;5063957;27;122185;-76
2022/08/02 07:38:34;;;;;;;7.40;3.90;;;19.50;99.90;;;20.61;91.19;99139.66;5082586;27;130372;-76
2022/08/02 07:41:03;;;;;;;5.60;2.90;;;19.40;99.90;;;20.63;90.61;99145.56;5066527;27;129218;-78
2022/08/02 07:43:31;;;;;;;6.15;3.28;;;19.40;99.90;;;20.48;90.38;99153.00;5082184;27;119564;-78
2022/08/02 07:46:00;;;;;;;4.95;2.97;;;19.20;99.90;;;20.71;89.35;99155.50;5082760;27;119399;-79
2022/08/02 07:48:30;;;;;;;4.82;2.72;;;19.60;99.90;;;20.93;87.04;99152.81;5082620;27;131029;-74
2022/08/02 07:50:58;;;;;;;3.88;2.63;;;19.70;99.90;;;21.31;85.40;99150.50;5082276;27;129422;-82
2022/08/02 07:53:27;;;;;;;3.88;2.30;;;20.00;99.90;;;21.00;84.34;99144.53;5081578;27;120406;-81
2022/08/02 07:55:55;;;;;;;5.13;2.50;;;19.80;99.90;;;21.02;82.22;99150.47;5081655;27;119303;-77
2022/08/02 07:58:24;;;;;;;4.32;2.30;;;19.80;99.90;;;21.58;80.33;99144.63;5051411;27;129741;-81
2022/08/02 08:00:52;;;;;;;3.85;2.33;;;20.10;99.90;;;21.41;80.63;99155.25;5046868;27;129045;-76
2022/08/02 08:03:20;;;;;;;3.50;1.88;;;20.00;99.90;;;21.42;78.24;99154.06;5061881;27;119819;-81
2022/08/02 08:05:53;;;;;;;4.15;2.28;;;19.90;99.90;;;20.98;80.36;99163.47;5081980;27;120670;-75
2022/08/02 08:08:22;;;;;;;4.03;2.25;;;19.70;99.90;;;21.01;79.94;99162.69;5081732;27;129677;-79
2022/08/02 08:10:50;;;;;;;5.22;2.20;;;19.80;99.90;;;21.17;78.77;99165.84;5066111;27;128843;-79
2022/08/02 08:13:19;;;;;;;3.03;2.00;;;19.90;99.90;;;21.52;76.58;99174.63;5082177;27;121128;-76
2022/08/02 08:15:48;;;;;;;3.28;1.90;;;20.10;99.90;;;21.72;75.59;99166.72;5081655;27;119219;-77
2022/08/02 08:18:17;;;;;;;5.88;1.90;;;20.20;99.90;;;21.85;75.49;99170.66;5081297;27;130026;-80
2022/08/02 08:20:45;;;;;;;4.93;2.00;;;20.40;99.90;;;21.73;75.48;99168.31;5062730;27;129203;-80
2022/08/02 08:23:15;;;;;;;3.60;2.20;;;20.30;99.90;;;21.92;75.03;99164.34;5065705;27;122154;-77
2022/08/02 08:25:44;;;;;;;3.45;1.90;;;20.40;99.90;;;22.18;74.39;99171.41;5082454;27;121870;-78
2022/08/02 08:28:12;;;;;;;3.05;1.83;;;20.60;99.90;;;21.82;73.46;99171.47;5066404;27;129429;-76
2022/08/02 08:30:41;;;;;;;2.13;1.42;;;20.30;99.90;;;21.52;75.40;99180.16;5081412;27;130010;-78
2022/08/02 08:33:10;;;;;;;5.22;1.65;;;20.10;99.90;;;21.95;73.66;99173.81;5082417;27;120014;-78
2022/08/02 08:35:38;;;;;;;3.42;2.10;;;20.50;99.90;;;21.80;74.33;99178.56;5081846;27;119828;-82
2022/08/02 08:38:08;;;;;;;2.75;1.75;;;20.40;99.90;;;21.56;76.01;99182.91;5080816;27;130388;-75
2022/08/02 08:40:38;;;;;;;4.95;2.00;;;20.30;99.90;;;21.79;74.36;99188.81;5081625;27;129697;-81
2022/08/02 08:43:06;;;;;;;4.53;1.60;;;20.40;99.90;;;21.58;74.29;99188.81;5081673;27;119640;-79
2022/08/02 08:45:35;;;;;;;5.78;1.70;;;20.20;99.90;;;21.67;74.90;99178.16;5081483;27;119870;-80
2022/08/02 08:48:12;;;;;;;3.42;1.75;;;20.30;99.90;;;22.01;74.16;99189.59;5046716;27;129610;-81
2022/08/02 08:50:49;;;;;;;4.25;2.00;;;20.70;99.90;;;22.35;71.46;99185.63;5080429;27;129087;-76
2022/08/02 08:53:20;;;;;;;5.00;1.85;;;20.90;99.90;;;22.66;71.60;99188.66;5062230;27;119125;-76
2022/08/02 08:55:52;;;;;;;4.82;2.05;;;21.10;99.90;;;23.02;68.92;99192.06;5060536;27;119341;-80
2022/08/02 08:58:21;;;;;;;6.75;2.78;;;21.20;99.90;;;23.00;69.04;99204.72;5059743;27;130396;-78
2022/08/02 09:00:50;;;;;;;3.35;1.90;;;21.10;99.90;;;22.60;71.00;99202.91;5059991;27;129318;-79
2022/08/02 09:03:18;;;;;;;6.60;2.83;;;20.80;99.90;;;22.75;72.19;99203.66;5061464;27;120145;-79
2022/08/02 09:05:47;;;;;;;7.38;2.53;;;21.00;99.90;;;23.03;70.91;99207.50;5061475;27;119523;-75
2022/08/02 09:08:17;;;;;;;4.13;2.08;;;21.20;99.90;;;23.29;69.58;99199.84;5060399;27;129813;-75
2022/08/02 09:10:48;;;;;;;4.47;2.00;;;21.30;99.90;;;23.16;69.81;99205.06;5060564;27;130194;-80
2022/08/02 09:13:20;;;;;;;2.78;1.70;;;21.00;99.90;;;22.64;71.94;99196.59;5044515;27;120859;-77
2022/08/02 09:15:56;;;;;;;4.30;1.92;;;20.90;99.90;;;22.94;70.64;99196.06;5045246;27;120910;-79
2022/08/02 09:18:30;;;;;;;;;;;21.10;99.90;;;22.22;73.81;99190.72;5061713;27;129836;-74
2022/08/02 09:21:01;;;;;;;4.40;1.90;;;20.70;99.90;;;22.33;73.14;99193.50;5061805;27;130560;-81
2022/08/02 09:23:36;;;;;;;4.10;1.80;;;20.80;99.90;;;22.82;71.93;99202.84;5092084;27;119872;-75
2022/08/02 09:26:07;;;;;;;4.60;2.00;;;21.30;99.90;;;22.89;70.48;99208.34;5082480;27;119587;-79
2022/08/02 09:28:40;;;;;;;3.88;1.95;;;21.00;99.90;;;22.55;72.87;99200.56;5063379;27;129929;-76
2022/08/02 09:31:11;;;;;;;3.95;1.80;;;21.00;99.90;;;22.97;71.49;99201.59;5076655;27;130220;-78
2022/08/02 09:33:41;;;;;;;5.85;2.13;;;21.20;99.90;;;23.36;69.76;99196.25;5076575;27;119525;-79
2022/08/02 09:36:12;;;;;;;3.15;1.90;;;21.60;99.90;;;23.52;69.01;99205.63;5080989;27;119356;-79
2022/08/02 09:38:52;;;;;;;3.05;1.70;;;21.70;99.90;;;23.49;69.51;99200.91;5080725;27;130897;-84
2022/08/02 09:41:22;;;;;;;2.70;1.73;;;21.70;99.90;;;23.09;68.76;99205.91;5060695;27;129548;-78
2022/08/02 09:43:54;;;;;;;3.65;1.90;;;21.20;99.90;;;23.33;67.35;99208.94;5081986;27;119623;-76
2022/08/02 09:46:25;;;;;;;3.00;1.50;;;21.40;99.90;;;22.96;68.28;99219.38;5080810;27;119332;-77
2022/08/02 09:48:59;;;;;;;2.95;1.95;;;21.00;99.90;;;22.89;69.66;99207.53;5081092;27;129831;-78
2022/08/02 09:51:30;;;;;;;2.13;1.60;;;21.10;99.90;;;22.81;69.91;99212.31;5071329;27;128284;-73
2022/08/02 09:54:01;;;;;;;5.72;2.00;;;21.40;99.90;;;22.53;70.65;99214.00;5064611;27;118848;-79
2022/08/02 09:56:43;;;;;;;3.45;1.80;;;20.90;99.90;;;22.83;70.90;99211.91;5065395;27;118830;-79
2022/08/02 09:59:13;;;;;;;2.60;1.60;;;21.10;99.90;;;22.83;71.03;99214.69;5079020;27;130135;-79
2022/08/02 10:01:43;;;;;;;2.65;1.67;;;21.20;99.90;;;23.02;69.50;99221.72;5079237;27;129563;-78
2022/08/02 10:04:13;;;;;;;3.35;1.92;;;21.20;99.90;;;23.29;67.94;99222.78;5078647;27;121959;-80
2022/08/02 10:06:43;;;;;;;4.20;1.80;;;21.60;94.70;;;24.07;64.03;99222.63;5064614;27;120912;-76
2022/08/02 10:09:13;;;;;;;4.00;1.85;;;22.10;85.80;;;24.52;64.10;99219.03;5080187;27;130468;-78
2022/08/02 10:11:42;;;;;;;3.10;1.88;;;22.40;89.40;;;24.70;63.50;99219.63;5079485;27;129737;-80
2022/08/02 10:14:12;;;;;;;2.80;1.73;;;22.50;86.40;;;24.37;63.05;99219.19;5058590;27;119232;-78
2022/08/02 10:16:43;;;;;;;3.05;2.03;;;22.30;82.20;;;23.99;64.54;99221.91;5076865;27;119402;-80
2022/08/02 10:19:12;;;;;;;4.55;1.65;;;21.80;93.20;;;23.47;67.33;99213.59;5079327;27;129689;-75
2022/08/02 10:21:46;;;;;;;3.42;1.83;;;21.70;94.70;;;23.67;66.56;99206.31;5080152;27;129355;-81
2022/08/02 10:24:17;;;;;;;2.90;1.60;;;21.80;94.80;;;23.56;68.40;99211.16;5080426;27;119798;-78
2022/08/02 10:26:48;;;;;;;3.33;1.58;;;21.80;94.80;;;23.53;66.69;99214.75;5062660;27;119307;-78